Time;durP1;ratioP1;P1;durP2;ratioP2;P2;SDS_P1;SDS_P2;PMS_P1;PMS_P2;Temp;Humidity;BMP_temperature;BMP_pressure;BME280_temperature;BME280_humidity;BME280_pressure;Samples;Min_cycle;Max_cycle;Signal;HPM_P1;HPM_P2
2023/08/21 00:03:19;;;;;;;10.25;7.57;;;17.80;99.90;;;;;;21012445;28;20393;-63
2023/08/21 00:13:21;;;;;;;8.93;7.85;;;17.60;99.90;;;;;;21042247;28;20035;-61
2023/08/21 00:23:23;;;;;;;10.02;8.52;;;17.30;99.90;;;;;;21032455;28;20032;-59
2023/08/21 00:33:25;;;;;;;8.85;7.93;;;17.00;99.90;;;;;;21051703;28;20546;-60
2023/08/21 00:43:27;;;;;;;12.10;8.90;;;16.80;99.90;;;;;;21032396;28;20036;-63
2023/08/21 00:53:29;;;;;;;9.50;8.50;;;16.60;99.90;;;;;;21050228;28;20043;-59
2023/08/21 01:03:31;;;;;;;13.32;9.75;;;16.70;99.90;;;;;;21031334;28;20055;-59
2023/08/21 01:13:38;;;;;;;10.23;8.77;;;16.60;99.90;;;;;;20994539;28;20040;-63
2023/08/21 01:23:44;;;;;;;12.25;9.30;;;16.70;99.90;;;;;;21040204;28;20547;-59
2023/08/21 01:33:51;;;;;;;9.63;8.43;;;16.60;99.90;;;;;;21039733;28;20040;-57
2023/08/21 01:43:53;;;;;;;10.77;8.88;;;16.50;99.90;;;;;;21027593;28;20090;-58
2023/08/21 01:53:55;;;;;;;10.02;9.02;;;16.60;99.90;;;;;;21023516;28;20465;-62
2023/08/21 02:03:56;;;;;;;12.00;9.45;;;16.60;99.90;;;;;;21043084;28;20374;-60
2023/08/21 02:13:58;;;;;;;11.55;9.77;;;16.70;99.90;;;;;;21024419;28;20597;-60
2023/08/21 02:24:04;;;;;;;10.85;8.80;;;16.60;99.90;;;;;;21009916;28;20020;-57
2023/08/21 02:34:07;;;;;;;12.88;9.35;;;16.40;99.90;;;;;;21057562;28;20032;-63
2023/08/21 02:44:08;;;;;;;12.23;8.98;;;16.50;99.90;;;;;;21058602;28;20048;-57
2023/08/21 02:54:10;;;;;;;12.75;9.35;;;16.80;99.90;;;;;;21018854;28;20082;-61
2023/08/21 03:04:12;;;;;;;10.55;9.25;;;16.70;99.90;;;;;;20990781;28;20032;-55
2023/08/21 03:14:14;;;;;;;12.88;9.40;;;16.60;99.90;;;;;;20998306;28;20028;-59
2023/08/21 03:24:16;;;;;;;14.38;8.93;;;16.80;99.90;;;;;;21001716;28;20093;-61
2023/08/21 03:34:18;;;;;;;10.68;8.88;;;16.80;99.90;;;;;;21002049;28;20482;-56
2023/08/21 03:44:20;;;;;;;11.85;9.20;;;16.70;99.90;;;;;;20999457;28;20065;-62
2023/08/21 03:54:22;;;;;;;12.70;9.48;;;16.60;99.90;;;;;;20995392;28;20093;-58
2023/08/21 04:04:24;;;;;;;11.40;9.85;;;16.60;99.90;;;;;;21011385;28;20368;-62
2023/08/21 04:14:26;;;;;;;11.75;9.50;;;16.30;99.90;;;;;;20996176;28;20037;-51
2023/08/21 04:24:28;;;;;;;15.07;9.60;;;16.30;99.90;;;;;;20976314;28;20027;-62
2023/08/21 04:34:32;;;;;;;11.23;9.13;;;16.50;99.90;;;;;;21018751;28;20086;-62
2023/08/21 04:44:34;;;;;;;11.00;9.35;;;16.50;99.90;;;;;;20980794;28;20036;-52
2023/08/21 04:54:37;;;;;;;10.50;9.40;;;16.40;99.90;;;;;;20990197;28;20575;-52
2023/08/21 05:04:40;;;;;;;11.27;9.68;;;16.50;99.90;;;;;;20986784;28;20460;-62
2023/08/21 05:14:42;;;;;;;12.68;9.60;;;16.60;99.90;;;;;;20993992;28;20036;-62
2023/08/21 05:24:44;;;;;;;11.63;9.85;;;16.60;99.90;;;;;;20991259;28;20101;-53
2023/08/21 05:34:46;;;;;;;10.50;9.40;;;16.70;99.90;;;;;;21008197;28;20028;-62
2023/08/21 05:44:48;;;;;;;13.13;10.55;;;16.90;99.90;;;;;;20969099;28;20032;-53
2023/08/21 05:54:50;;;;;;;11.02;9.68;;;17.10;99.90;;;;;;20989953;28;20381;-53
2023/08/21 06:04:52;;;;;;;12.00;9.10;;;17.30;99.90;;;;;;20977032;28;20048;-62
2023/08/21 06:14:56;;;;;;;13.20;9.00;;;17.20;99.90;;;;;;20983231;28;20547;-54
2023/08/21 06:24:58;;;;;;;9.90;8.90;;;17.40;99.90;;;;;;21003066;28;20047;-63
2023/08/21 06:35:00;;;;;;;11.43;8.73;;;17.60;99.90;;;;;;20981833;28;20338;-55
2023/08/21 06:45:03;;;;;;;9.88;7.15;;;18.50;99.90;;;;;;21008233;28;20032;-55
2023/08/21 06:55:05;;;;;;;8.85;8.05;;;21.00;99.90;;;;;;21018400;28;20036;-66
2023/08/21 07:05:08;;;;;;;10.07;9.05;;;22.70;99.90;;;;;;20998735;28;20401;-65
2023/08/21 07:15:10;;;;;;;10.82;9.73;;;23.50;99.90;;;;;;21024232;28;20116;-65
2023/08/21 07:25:12;;;;;;;11.23;9.95;;;24.50;99.90;;;;;;21007504;28;20115;-65
2023/08/21 07:35:15;;;;;;;11.27;10.18;;;25.70;99.90;;;;;;21005517;28;20039;-66
2023/08/21 07:45:16;;;;;;;9.55;8.63;;;26.70;99.90;;;;;;21015773;28;20385;-67
2023/08/21 07:55:18;;;;;;;10.27;9.38;;;27.70;99.90;;;;;;21002113;28;20345;-65
2023/08/21 08:05:20;;;;;;;11.88;10.77;;;28.30;99.90;;;;;;21020275;28;20044;-65
2023/08/21 08:15:23;;;;;;;11.38;10.40;;;28.90;99.90;;;;;;21009152;28;20037;-64
2023/08/21 08:25:25;;;;;;;11.15;10.05;;;29.00;99.90;;;;;;21016917;28;20032;-64
2023/08/21 08:35:27;;;;;;;12.90;11.18;;;29.40;99.90;;;;;;20792180;28;20037;-64
2023/08/21 08:45:32;;;;;;;12.40;11.20;;;29.70;99.90;;;;;;20788099;28;20098;-63
2023/08/21 08:55:34;;;;;;;11.73;10.63;;;29.50;99.10;;;;;;20789886;28;20103;-64
2023/08/21 09:05:36;;;;;;;13.25;11.88;;;29.70;99.50;;;;;;20971490;28;20094;-64
2023/08/21 09:15:38;;;;;;;13.75;12.48;;;30.10;99.80;;;;;;21017876;28;20089;-63
2023/08/21 09:25:41;;;;;;;14.00;12.68;;;30.00;99.70;;;;;;21016428;28;20036;-63
2023/08/21 09:35:44;;;;;;;13.32;12.05;;;30.20;98.20;;;;;;21004830;28;20032;-63
2023/08/21 09:45:55;;;;;;;14.40;13.00;;;30.30;99.90;;;;;;20994264;28;20337;-63
2023/08/21 09:55:58;;;;;;;14.48;13.13;;;30.60;99.60;;;;;;21017368;28;20381;-63
2023/08/21 10:06:01;;;;;;;15.25;13.85;;;30.50;99.10;;;;;;21012444;28;20735;-62
2023/08/21 10:16:05;;;;;;;16.27;14.48;;;30.40;97.80;;;;;;21024378;28;20081;-53
2023/08/21 10:26:08;;;;;;;17.10;15.30;;;30.80;97.60;;;;;;21026887;28;20032;-61
2023/08/21 10:36:11;;;;;;;15.57;13.98;;;30.60;96.10;;;;;;21041570;28;20539;-64
2023/08/21 10:46:15;;;;;;;15.75;13.57;;;29.70;98.80;;;;;;21015650;28;20062;-62
2023/08/21 10:56:17;;;;;;;14.82;12.77;;;28.40;99.90;;;;;;21006595;28;20028;-62
2023/08/21 11:06:20;;;;;;;14.02;12.68;;;29.40;99.90;;;;;;21008400;28;20040;-61
2023/08/21 11:16:22;;;;;;;13.98;12.68;;;29.70;99.90;;;;;;21015429;28;20542;-61
2023/08/21 11:26:27;;;;;;;14.50;13.10;;;30.60;99.40;;;;;;21015643;28;20032;-61
2023/08/21 11:36:29;;;;;;;15.50;14.10;;;30.60;99.60;;;;;;20990310;28;20054;-61
2023/08/21 11:46:31;;;;;;;14.32;12.85;;;30.60;97.70;;;;;;21003658;28;20036;-62
2023/08/21 11:56:33;;;;;;;13.93;12.52;;;30.50;98.30;;;;;;20993931;28;20041;-61
2023/08/21 12:06:43;;;;;;;13.93;12.48;;;30.60;97.80;;;;;;21000803;28;20048;-61
2023/08/21 12:16:45;;;;;;;13.38;11.68;;;31.40;96.90;;;;;;21010863;28;20032;-61
2023/08/21 12:26:46;;;;;;;13.20;11.60;;;31.80;97.70;;;;;;20996467;28;20514;-62
2023/08/21 12:36:51;;;;;;;14.50;12.55;;;32.10;97.90;;;;;;21006919;28;20036;-62
2023/08/21 12:46:52;;;;;;;13.95;12.43;;;32.10;96.60;;;;;;20999368;28;20046;-62
2023/08/21 12:56:56;;;;;;;14.60;13.23;;;32.00;96.70;;;;;;21007154;28;20342;-62
2023/08/21 13:06:58;;;;;;;14.57;13.18;;;31.80;96.50;;;;;;21001354;28;20449;-62
2023/08/21 13:17:00;;;;;;;15.00;12.93;;;31.80;96.90;;;;;;20990231;28;20058;-62
2023/08/21 13:27:02;;;;;;;14.88;13.48;;;32.00;97.90;;;;;;21020797;28;20032;-62
2023/08/21 13:37:05;;;;;;;21.60;16.02;;;;;;;;;;21006566;28;20538;-62
2023/08/21 13:47:07;;;;;;;15.13;13.73;;;31.80;99.90;;;;;;21018190;28;20053;-62
2023/08/21 13:57:08;;;;;;;17.80;15.82;;;31.60;97.50;;;;;;21000912;28;20040;-62
2023/08/21 14:07:11;;;;;;;15.52;12.95;;;31.90;96.90;;;;;;20996430;28;20105;-62
2023/08/21 14:17:13;;;;;;;16.52;13.77;;;31.70;97.30;;;;;;21017166;28;20036;-62
2023/08/21 14:27:15;;;;;;;16.30;14.75;;;31.40;96.60;;;;;;20990753;28;20436;-62
2023/08/21 14:37:17;;;;;;;15.35;13.95;;;31.50;96.10;;;;;;21017358;28;20102;-62
2023/08/21 14:47:19;;;;;;;14.88;13.50;;;31.50;95.70;;;;;;21003271;28;20514;-61
2023/08/21 14:57:21;;;;;;;16.88;15.10;;;31.40;95.60;;;;;;21022254;28;20093;-64
2023/08/21 15:07:23;;;;;;;13.57;12.43;;;31.00;96.50;;;;;;21001796;28;20051;-65
2023/08/21 15:17:25;;;;;;;13.68;12.38;;;28.90;99.50;;;;;;21015755;28;20031;-63
2023/08/21 15:27:27;;;;;;;14.63;12.60;;;27.40;99.50;;;;;;21010772;28;20032;-63
2023/08/21 15:37:29;;;;;;;13.73;12.32;;;26.30;99.90;;;;;;21005677;28;20029;-63
2023/08/21 15:47:31;;;;;;;13.00;11.80;;;26.30;99.90;;;;;;21013026;28;20032;-64
2023/08/21 15:57:33;;;;;;;12.30;11.07;;;27.20;99.90;;;;;;21007609;28;20472;-65
2023/08/21 16:07:35;;;;;;;13.52;12.25;;;27.80;99.40;;;;;;21009702;28;20041;-52
2023/08/21 16:17:37;;;;;;;15.02;13.52;;;28.10;98.50;;;;;;21013255;28;20046;-64
2023/08/21 16:27:40;;;;;;;14.00;12.60;;;27.10;99.90;;;;;;21005459;28;20077;-63
2023/08/21 16:37:43;;;;;;;16.17;13.68;;;25.80;99.90;;;;;;20993591;28;20058;-62
2023/08/21 16:47:46;;;;;;;16.75;14.02;;;24.70;99.90;;;;;;21026873;28;20024;-63
2023/08/21 16:57:49;;;;;;;15.73;14.02;;;23.90;99.90;;;;;;21046257;28;20097;-62
2023/08/21 17:07:52;;;;;;;17.25;15.45;;;23.20;99.90;;;;;;21018977;28;20489;-62
2023/08/21 17:17:54;;;;;;;19.90;16.27;;;22.70;99.90;;;;;;20982449;28;20032;-62
2023/08/21 17:27:58;;;;;;;19.52;16.73;;;22.30;99.90;;;;;;21045277;28;20484;-62
2023/08/21 17:37:59;;;;;;;19.70;17.67;;;21.90;99.90;;;;;;20974292;28;20470;-62
2023/08/21 17:48:03;;;;;;;18.98;16.90;;;21.50;99.90;;;;;;20999132;28;20040;-62
2023/08/21 17:58:05;;;;;;;20.92;16.88;;;21.10;99.90;;;;;;21037448;28;20075;-62
2023/08/21 18:08:07;;;;;;;18.23;16.33;;;20.80;99.90;;;;;;21027176;28;20081;-62
2023/08/21 18:18:09;;;;;;;18.80;15.68;;;20.50;99.90;;;;;;20983923;28;20043;-61
2023/08/21 18:28:11;;;;;;;25.85;15.13;;;20.30;99.90;;;;;;20981569;28;20036;-61
2023/08/21 18:38:13;;;;;;;18.55;15.40;;;20.40;99.90;;;;;;21009427;28;20028;-52
2023/08/21 18:48:15;;;;;;;14.90;13.20;;;19.90;99.90;;;;;;21013094;28;20028;-62
2023/08/21 18:58:17;;;;;;;15.75;14.05;;;20.00;99.90;;;;;;20879519;28;20040;-62
2023/08/21 19:08:20;;;;;;;16.58;11.75;;;19.80;99.90;;;;;;20832902;28;20157;-61
2023/08/21 19:18:21;;;;;;;18.33;15.02;;;19.80;99.90;;;;;;20854180;28;20053;-62
2023/08/21 19:28:24;;;;;;;12.32;11.02;;;19.80;99.90;;;;;;20841235;28;20130;-62
2023/08/21 19:38:27;;;;;;;14.00;12.50;;;19.50;99.90;;;;;;20893366;28;20036;-50
2023/08/21 19:48:29;;;;;;;18.35;13.63;;;19.80;99.90;;;;;;20886338;28;20037;-62
2023/08/21 19:58:34;;;;;;;14.32;12.82;;;19.50;99.90;;;;;;20971491;28;20044;-62
2023/08/21 20:08:36;;;;;;;13.73;11.57;;;19.30;99.90;;;;;;21004278;28;20099;-57
2023/08/21 20:18:39;;;;;;;13.27;11.85;;;19.30;99.90;;;;;;21006961;28;20051;-59
2023/08/21 20:28:42;;;;;;;15.18;11.57;;;19.40;99.90;;;;;;21021693;28;20382;-58
2023/08/21 20:38:45;;;;;;;10.50;9.35;;;19.30;99.90;;;;;;21035274;28;20430;-61
2023/08/21 20:48:47;;;;;;;10.25;8.82;;;19.40;99.90;;;;;;21041703;28;20389;-62
2023/08/21 20:58:49;;;;;;;9.45;8.00;;;19.30;99.90;;;;;;21031186;28;20044;-61
2023/08/21 21:08:53;;;;;;;13.00;9.23;;;19.10;99.90;;;;;;21021278;28;20113;-59
2023/08/21 21:18:55;;;;;;;13.48;12.07;;;19.10;99.90;;;;;;21002554;28;20032;-61
2023/08/21 21:29:04;;;;;;;12.20;10.32;;;19.00;99.90;;;;;;21038327;28;20485;-61
2023/08/21 21:39:09;;;;;;;15.73;10.85;;;19.10;99.90;;;;;;21017881;28;20318;-59
2023/08/21 21:49:11;;;;;;;12.38;10.05;;;18.90;99.90;;;;;;21034164;28;20097;-61
2023/08/21 21:59:13;;;;;;;10.95;9.35;;;18.60;99.90;;;;;;21049813;28;20044;-57
2023/08/21 22:09:15;;;;;;;8.95;8.00;;;18.40;99.90;;;;;;21033304;28;20033;-61
2023/08/21 22:19:17;;;;;;;9.80;7.60;;;18.30;99.90;;;;;;21042570;28;20062;-60
2023/08/21 22:29:22;;;;;;;6.90;6.03;;;18.20;99.90;;;;;;21041823;28;20040;-60
2023/08/21 22:39:25;;;;;;;8.15;6.55;;;18.00;99.90;;;;;;21015263;28;20102;-61
2023/08/21 22:49:27;;;;;;;9.40;6.60;;;17.90;99.90;;;;;;21047240;28;20493;-61
2023/08/21 22:59:29;;;;;;;10.93;7.50;;;17.80;99.90;;;;;;21022714;28;20040;-61
2023/08/21 23:09:31;;;;;;;8.05;7.25;;;17.70;99.90;;;;;;21016939;28;20052;-61
2023/08/21 23:19:34;;;;;;;8.25;6.63;;;17.90;99.90;;;;;;21043305;28;20477;-61
2023/08/21 23:29:36;;;;;;;10.05;7.90;;;17.80;99.90;;;;;;21036925;28;20032;-61
2023/08/21 23:39:38;;;;;;;9.25;7.55;;;17.70;99.90;;;;;;21032820;28;20648;-60
2023/08/21 23:49:40;;;;;;;9.95;7.75;;;17.70;99.90;;;;;;21043487;28;20089;-61
2023/08/21 23:59:42;;;;;;;10.25;7.65;;;17.60;99.90;;;;;;21023598;28;20052;-61
